Time;durP1;ratioP1;P1;durP2;ratioP2;P2;SDS_P1;SDS_P2;PMS_P1;PMS_P2;Temp;Humidity;BMP_temperature;BMP_pressure;BME280_temperature;BME280_humidity;BME280_pressure;Samples;Min_cycle;Max_cycle;Signal;HPM_P1;HPM_P2
2021/05/01 00:12:35;;;;;;;7.38;3.68;;;;;;;16.76;51.64;97746.59;127504;1104;115642;-81
2021/05/01 00:16:02;;;;;;;6.08;3.45;;;;;;;16.68;51.93;97742.17;127368;1104;114949;-81
2021/05/01 00:19:29;;;;;;;6.25;3.70;;;;;;;16.60;52.07;97730.40;127514;1104;115299;-81
2021/05/01 00:23:07;;;;;;;5.23;2.90;;;;;;;16.56;53.63;97736.94;127561;1104;115719;-81
2021/05/01 00:26:34;;;;;;;5.23;3.00;;;;;;;16.50;53.49;97719.35;127327;1104;115189;-81
2021/05/01 00:30:04;;;;;;;6.95;3.15;;;;;;;16.44;52.81;97727.82;128361;1104;22805;-82
2021/05/01 00:33:40;;;;;;;7.40;3.53;;;;;;;16.40;53.12;97724.26;127455;1104;115518;-79
2021/05/01 00:37:06;;;;;;;6.35;3.15;;;;;;;16.38;52.01;97726.55;127312;1104;115330;-81
2021/05/01 00:40:42;;;;;;;5.13;2.90;;;;;;;16.37;52.03;97729.63;127619;1099;116204;-82
2021/05/01 00:44:24;;;;;;;4.38;2.88;;;;;;;16.33;52.59;97718.70;127500;1104;115306;-82
2021/05/01 00:47:56;;;;;;;4.98;3.13;;;;;;;16.33;52.27;97726.08;128224;1104;22809;-81
2021/05/01 00:51:32;;;;;;;4.68;2.90;;;;;;;16.31;51.38;97728.35;127355;1099;114889;-82
2021/05/01 00:55:05;;;;;;;5.25;3.30;;;;;;;16.26;52.25;97725.95;127429;1104;115514;-81
2021/05/01 00:58:32;;;;;;;6.70;3.08;;;;;;;16.24;52.10;97728.25;127351;1104;114967;-79
2021/05/01 01:02:28;;;;;;;5.10;3.15;;;;;;;16.22;51.89;97722.39;127498;1099;115419;-80
2021/05/01 01:05:35;;;;;;;3.75;2.75;;;;;;;16.19;52.22;97723.88;127350;1104;114861;-80
2021/05/01 01:09:17;;;;;;;4.65;2.73;;;;;;;16.15;52.00;97726.56;128337;1104;22733;-82
2021/05/01 01:12:46;;;;;;;4.85;2.68;;;;;;;16.07;53.01;97721.34;126788;1108;115502;-82
2021/05/01 01:23:15;;;;;;;4.85;2.50;;;;;;;15.85;52.73;97725.63;127440;1105;114884;-79
2021/05/01 01:26:44;;;;;;;3.53;2.68;;;;;;;15.80;53.15;97720.46;128117;1104;22720;-80
2021/05/01 01:30:27;;;;;;;4.28;2.68;;;;;;;15.77;53.44;97718.49;128204;1104;23538;-80
2021/05/01 01:37:17;;;;;;;5.63;2.50;;;;;;;15.79;54.50;97725.11;127263;1099;115258;-80
2021/05/01 01:40:45;;;;;;;3.83;2.20;;;;;;;15.82;53.65;97732.55;127420;1099;115312;-80
2021/05/01 01:44:13;;;;;;;4.83;2.75;;;;;;;15.87;53.85;97721.38;127347;1106;115351;-79
2021/05/01 01:47:45;;;;;;;3.33;2.38;;;;;;;15.90;53.13;97715.24;127459;1104;115708;-79
2021/05/01 01:51:12;;;;;;;2.55;1.98;;;;;;;15.93;53.00;97719.95;127926;1105;22769;-80
2021/05/01 01:54:41;;;;;;;3.00;2.10;;;;;;;15.97;52.77;97722.73;128141;1107;23338;-81
2021/05/01 02:15:36;;;;;;;;;;;;;;;;;;;;;
2021/05/01 02:26:26;;;;;;;5.93;2.50;;;;;;;15.44;54.76;97727.88;126408;1110;114533;-81
2021/05/01 02:33:20;;;;;;;3.70;2.57;;;;;;;15.32;55.09;97717.17;127203;1104;115024;-81
2021/05/01 02:36:47;;;;;;;4.40;2.48;;;;;;;15.29;55.19;97717.88;127511;1104;115108;-81
2021/05/01 02:40:16;;;;;;;5.03;2.35;;;;;;;15.26;54.96;97719.39;127481;1104;115524;-81
2021/05/01 02:47:25;;;;;;;;;;;;;;;;;;;;;
2021/05/01 02:50:42;;;;;;;5.05;2.60;;;;;;;15.29;54.86;97699.70;128332;1104;22753;-83
2021/05/01 02:54:16;;;;;;;7.10;3.10;;;;;;;15.35;54.62;97700.19;128160;1098;25835;-81
2021/05/01 02:57:50;;;;;;;4.38;2.18;;;;;;;15.38;54.66;97683.21;127423;1104;115460;-80
2021/05/01 03:04:55;;;;;;;4.65;2.58;;;;;;;15.37;55.18;97674.30;127307;1104;114908;-80
2021/05/01 03:15:23;;;;;;;4.35;2.18;;;;;;;15.23;55.98;97692.98;127491;1104;115638;-79
2021/05/01 03:18:56;;;;;;;4.35;2.48;;;;;;;15.19;56.38;97703.75;127569;1104;115177;-79
2021/05/01 03:22:34;;;;;;;3.63;2.50;;;;;;;15.15;56.43;97702.11;127306;1105;115398;-80
2021/05/01 03:26:01;;;;;;;4.25;2.30;;;;;;;15.11;56.96;97701.25;127309;1104;115473;-79
2021/05/01 03:29:33;;;;;;;3.25;2.30;;;;;;;15.08;56.71;97694.60;127476;1104;115055;-79
2021/05/01 03:33:00;;;;;;;3.15;2.35;;;;;;;15.06;56.96;97693.41;128111;1104;23420;-79
2021/05/01 03:36:28;;;;;;;6.55;2.80;;;;;;;15.07;56.46;97692.26;128283;1104;22787;-80
2021/05/01 03:39:56;;;;;;;5.00;2.40;;;;;;;15.10;56.44;97689.63;127457;1100;116228;-77
2021/05/01 03:43:22;;;;;;;4.90;2.60;;;;;;;15.16;56.12;97700.96;127557;1104;115327;-80
2021/05/01 03:57:34;;;;;;;3.55;2.43;;;;;;;15.32;55.34;97706.33;127166;1104;115357;-78
2021/05/01 04:01:01;;;;;;;5.00;2.68;;;;;;;15.34;55.52;97699.41;127548;1104;115051;-80
2021/05/01 04:07:58;;;;;;;5.00;2.73;;;;;;;15.42;54.82;97709.27;127489;1100;115141;-82
2021/05/01 04:11:19;;;;;;;3.20;2.58;;;;;;;15.48;54.60;97726.03;127513;1104;114876;-80
2021/05/01 04:14:47;;;;;;;6.10;2.48;;;;;;;15.51;54.75;97728.03;127355;1105;114601;-79
2021/05/01 04:25:13;;;;;;;4.53;2.05;;;;;;;15.61;55.42;97727.47;127419;1104;115310;-81
2021/05/01 04:28:40;;;;;;;5.00;2.50;;;;;;;15.61;55.38;97738.33;127284;1105;114900;-80
2021/05/01 04:32:17;;;;;;;5.95;2.75;;;;;;;15.62;55.52;97739.11;127474;1104;115033;-80
2021/05/01 04:35:46;;;;;;;4.43;2.60;;;;;;;15.64;55.11;97736.80;127376;1104;115402;-81
2021/05/01 04:43:11;;;;;;;5.15;2.40;;;;;;;15.64;55.45;97734.91;128263;1104;22796;-80
2021/05/01 04:46:11;;;;;;;4.70;2.63;;;;;;;15.67;55.67;97745.05;127283;1104;114710;-81
2021/05/01 04:53:05;;;;;;;5.88;2.80;;;;;;;15.79;55.08;97751.47;127471;1104;114870;-80
2021/05/01 04:56:31;;;;;;;5.38;2.75;;;;;;;15.83;55.18;97746.90;127460;1104;114679;-80
2021/05/01 04:59:57;;;;;;;5.00;2.60;;;;;;;15.88;54.88;97744.70;128277;1104;23506;-81
2021/05/01 05:03:32;;;;;;;3.37;2.50;;;;;;;15.92;54.96;97758.34;127533;1100;115395;-81
2021/05/01 05:06:59;;;;;;;4.65;2.73;;;;;;;15.97;54.64;97763.47;127462;1104;115155;-82
2021/05/01 05:10:26;;;;;;;5.45;2.90;;;;;;;16.00;54.12;97756.55;127498;1104;114790;-81
2021/05/01 05:14:03;;;;;;;;;;;;;;;;;;;;;
2021/05/01 05:27:53;;;;;;;5.78;2.55;;;;;;;16.18;54.13;97771.21;127524;1104;115729;-81
2021/05/01 05:31:23;;;;;;;4.15;2.80;;;;;;;16.25;54.07;97784.14;127484;1104;115044;-81
2021/05/01 05:34:51;;;;;;;6.15;2.78;;;;;;;16.31;53.77;97767.20;127244;1105;114915;-81
2021/05/01 05:38:27;;;;;;;;;;;;;;;;;;;;;
2021/05/01 05:45:47;;;;;;;5.08;2.83;;;;;;;16.53;53.54;97772.98;128189;1104;22770;-82
2021/05/01 05:52:24;;;;;;;4.70;2.67;;;;;;;16.66;53.44;97777.88;127335;1105;115171;-81
2021/05/01 06:02:48;;;;;;;6.25;2.80;;;;;;;16.89;53.36;97790.67;128157;1105;22772;-82
2021/05/01 06:09:55;;;;;;;6.40;2.93;;;;;;;17.05;52.68;97799.47;127197;1105;115250;-79
2021/05/01 06:13:32;;;;;;;;;;;;;;;;;;;;;
2021/05/01 06:16:52;;;;;;;6.65;2.98;;;;;;;17.15;52.50;97801.58;127418;1105;115053;-81
2021/05/01 06:20:19;;;;;;;4.73;2.85;;;;;;;17.21;52.61;97793.09;127509;1104;115408;-81
2021/05/01 06:23:57;;;;;;;5.88;3.33;;;;;;;17.25;52.54;97792.02;127493;1104;115126;-81
2021/05/01 06:27:24;;;;;;;5.85;2.98;;;;;;;17.34;52.11;97791.73;128077;1104;22783;-79
2021/05/01 06:30:51;;;;;;;5.50;3.08;;;;;;;17.40;52.23;97791.03;127580;1104;115397;-80
2021/05/01 06:34:18;;;;;;;6.50;3.20;;;;;;;17.45;52.44;97795.39;127336;1104;114338;-82
2021/05/01 06:38:01;;;;;;;;;;;;;;;;;;;;;
2021/05/01 06:41:13;;;;;;;;;;;;;;;;;;;;;
2021/05/01 06:45:01;;;;;;;8.00;4.08;;;;;;;17.65;51.64;97790.59;127620;1099;114828;-82
2021/05/01 06:52:02;;;;;;;8.53;3.60;;;;;;;17.76;51.93;97799.69;127493;1099;115485;-82
2021/05/01 07:02:29;;;;;;;6.73;4.08;;;;;;;17.91;51.67;97787.80;127501;1105;115405;-81
2021/05/01 07:09:24;;;;;;;7.03;4.55;;;;;;;18.01;51.68;97788.31;127535;1104;114947;-82
2021/05/01 07:26:58;;;;;;;8.60;4.90;;;;;;;18.70;50.49;97785.08;127844;1108;22778;-81
2021/05/01 07:33:58;;;;;;;7.08;4.90;;;;;;;19.02;50.22;97788.88;127213;1099;115237;-81
2021/05/01 07:37:33;;;;;;;8.00;5.43;;;;;;;19.13;49.53;97784.25;127494;1104;115123;-80
2021/05/01 07:41:02;;;;;;;6.85;5.20;;;;;;;19.23;48.89;97781.98;127239;1107;115341;-83
2021/05/01 07:48:21;;;;;;;6.83;4.15;;;;;;;19.50;48.67;97787.99;128280;1100;22762;-82
2021/05/01 07:52:01;;;;;;;6.83;4.38;;;;;;;19.58;48.22;97793.10;127811;1103;22795;-82
2021/05/01 08:02:57;;;;;;;;;;;;;;;;;;;;;
2021/05/01 08:06:20;;;;;;;4.78;3.90;;;;;;;20.14;46.72;97790.99;127882;1107;22752;-82
2021/05/01 08:13:16;;;;;;;4.88;3.43;;;;;;;20.45;46.16;97797.70;127497;1104;115295;-82
2021/05/01 08:17:07;;;;;;;6.85;4.20;;;;;;;20.49;44.95;97795.00;127285;1104;114864;-81
2021/05/01 08:23:47;;;;;;;6.18;3.23;;;;;;;20.83;45.56;97795.41;128296;1104;22759;-80
2021/05/01 08:27:15;;;;;;;4.55;3.63;;;;;;;21.06;45.45;97789.52;128147;1104;22720;-82
2021/05/01 08:30:52;;;;;;;4.03;3.25;;;;;;;21.23;44.46;97809.84;128349;1104;23500;-80
2021/05/01 08:34:19;;;;;;;4.78;3.38;;;;;;;21.36;43.86;97810.23;127462;1104;114769;-82
2021/05/01 08:37:55;;;;;;;4.97;3.40;;;;;;;21.39;43.34;97799.28;127473;1105;114923;-81
2021/05/01 08:41:22;;;;;;;3.48;2.48;;;;;;;21.48;43.01;97812.55;127338;1104;116401;-82
2021/05/01 08:48:29;;;;;;;4.53;2.63;;;;;;;21.70;42.27;97811.33;127374;1104;115686;-82
2021/05/01 08:52:11;;;;;;;5.25;2.88;;;;;;;21.74;41.64;97817.57;127166;1099;116375;-82
2021/05/01 08:55:38;;;;;;;3.93;2.85;;;;;;;21.74;41.19;97825.80;127423;1104;115331;-81
2021/05/01 09:02:32;;;;;;;3.73;2.63;;;;;;;21.87;41.15;97809.69;127234;1104;115683;-83
2021/05/01 09:06:00;;;;;;;4.80;3.33;;;;;;;21.98;40.56;97812.39;128325;1104;22766;-82
2021/05/01 09:09:26;;;;;;;5.25;2.70;;;;;;;22.06;40.50;97811.95;127490;1104;115595;-82
2021/05/01 09:16:20;;;;;;;4.10;2.47;;;;;;;22.21;39.85;97804.47;126619;1105;114680;-81
2021/05/01 09:20:05;;;;;;;;;;;;;;;;;;;;;
2021/05/01 09:27:21;;;;;;;4.40;2.48;;;;;;;22.25;39.52;97812.68;128209;1104;22807;-84
2021/05/01 09:30:54;;;;;;;4.43;3.05;;;;;;;22.35;39.26;97808.30;127196;1102;115381;-83
2021/05/01 09:41:36;;;;;;;;;;;;;;;;;;;;;
2021/05/01 09:45:06;;;;;;;5.70;3.55;;;;;;;22.87;39.33;97797.34;127735;1104;115242;-82
2021/05/01 09:52:02;;;;;;;4.63;3.10;;;;;;;22.93;38.50;97793.79;126977;1103;115955;-82
2021/05/01 09:55:32;;;;;;;4.90;3.13;;;;;;;22.93;38.64;97804.77;126946;1103;115996;-82
2021/05/01 09:58:51;;;;;;;;;;;;;;;;;;;;;
2021/05/01 10:06:09;;;;;;;5.93;3.90;;;;;;;23.31;38.05;97776.58;127919;1104;23507;-81
2021/05/01 10:09:35;;;;;;;9.25;5.50;;;;;;;23.41;37.94;97773.70;128240;1104;22728;-81
2021/05/01 10:13:28;;;;;;;6.50;4.10;;;;;;;23.49;37.80;97777.92;128294;1100;22752;-82
2021/05/01 10:16:50;;;;;;;6.03;3.80;;;;;;;23.57;37.72;97758.61;127462;1105;114570;-81
2021/05/01 10:20:25;;;;;;;7.30;3.83;;;;;;;23.65;37.60;97755.36;127496;1104;116559;-82
2021/05/01 10:27:22;;;;;;;6.30;3.88;;;;;;;24.15;36.29;97735.48;127460;1105;115375;-82
2021/05/01 10:38:26;;;;;;;7.08;3.83;;;;;;;24.68;35.76;97739.42;127103;1104;114767;-82
2021/05/01 10:42:03;;;;;;;5.88;3.98;;;;;;;24.78;35.97;97726.66;128152;1104;113619;-82
2021/05/01 10:53:03;;;;;;;;;;;;;;;;;;;;;
2021/05/01 10:59:58;;;;;;;4.65;3.35;;;;;;;25.59;35.09;97706.28;127847;1107;22775;-82
2021/05/01 11:06:57;;;;;;;4.35;2.48;;;;;;;26.08;34.72;97696.16;127291;1104;115396;-83
2021/05/01 11:10:22;;;;;;;4.63;3.20;;;;;;;26.41;33.93;97715.52;127302;1104;114888;-82
2021/05/01 11:17:20;;;;;;;4.00;2.55;;;;;;;26.75;33.49;97703.26;127463;1104;116240;-83
2021/05/01 11:20:49;;;;;;;7.88;2.63;;;;;;;26.87;31.18;97700.55;127470;1104;114697;-81
2021/05/01 11:27:57;;;;;;;3.65;2.55;;;;;;;26.90;32.44;97710.74;128137;1104;23728;-82
2021/05/01 11:31:24;;;;;;;3.23;2.40;;;;;;;26.82;31.81;97703.08;127306;1111;22802;-81
2021/05/01 11:34:39;;;;;;;;;;;;;;;;;;;;;
2021/05/01 11:38:09;;;;;;;6.78;2.73;;;;;;;26.87;31.83;97695.03;126737;1108;115123;-82
2021/05/01 11:41:41;;;;;;;4.30;2.78;;;;;;;27.02;31.71;97681.62;126509;1110;115188;-82
2021/05/01 11:45:08;;;;;;;4.88;2.85;;;;;;;27.29;32.08;97683.30;127426;1104;22732;-83
2021/05/01 11:48:27;;;;;;;;;;;;;;;;;;;;;
2021/05/01 11:55:48;;;;;;;5.93;3.25;;;;;;;27.36;31.29;97674.80;127497;1104;115601;-83
2021/05/01 12:03:01;;;;;;;5.58;2.80;;;;;;;27.45;31.34;97685.22;128060;1105;22770;-81
2021/05/01 12:10:06;;;;;;;6.25;3.58;;;;;;;27.88;30.45;97665.38;127453;1104;116443;-83
2021/05/01 12:14:06;;;;;;;6.08;3.25;;;;;;;27.98;29.68;97653.22;127374;1104;114863;-81
2021/05/01 12:17:01;;;;;;;;;;;;;;;28.20;29.93;97650.52;127452;1104;114991;-81
2021/05/01 12:20:30;;;;;;;5.43;3.63;;;;;;;28.44;30.02;97645.41;127648;1104;101195;-82
2021/05/01 12:23:59;;;;;;;4.93;2.90;;;;;;;28.74;29.18;97657.86;128047;1104;22783;-82
2021/05/01 12:27:34;;;;;;;5.30;2.65;;;;;;;28.84;27.72;97640.07;127590;1104;115382;-82
2021/05/01 12:31:21;;;;;;;5.68;2.88;;;;;;;28.96;28.45;97624.61;127553;1104;114908;-82
2021/05/01 12:34:30;;;;;;;9.80;4.40;;;;;;;29.08;28.45;97637.69;127444;1100;115719;-83
2021/05/01 12:37:59;;;;;;;10.50;4.47;;;;;;;29.19;28.34;97623.41;127525;1104;114880;-82
2021/05/01 12:41:29;;;;;;;9.75;3.68;;;;;;;29.48;28.40;97612.04;127239;1105;115142;-82
2021/05/01 12:52:22;;;;;;;;;;;;;;;;;;;;;
2021/05/01 12:56:09;;;;;;;;;;;;;;;;;;;;;
2021/05/01 13:02:55;;;;;;;4.68;2.43;;;;;;;29.91;25.89;97588.19;127591;1108;115248;-80
2021/05/01 13:06:23;;;;;;;3.30;1.88;;;;;;;29.83;24.56;97590.48;127534;1104;115225;-82
2021/05/01 13:09:50;;;;;;;7.35;2.88;;;;;;;29.78;25.79;97582.73;127521;1104;115452;-80
2021/05/01 13:13:16;;;;;;;5.78;2.70;;;;;;;29.94;26.30;97569.83;127486;1104;115316;-81
2021/05/01 13:21:04;;;;;;;;;;;;;;;;;;;;;
2021/05/01 13:27:59;;;;;;;;;;;;;;;;;;;;;
2021/05/01 13:41:59;;;;;;;6.65;3.10;;;;;;;30.09;25.74;97549.34;127408;1108;115549;-81
2021/05/01 13:45:52;;;;;;;4.33;2.43;;;;;;;30.27;25.44;97545.09;127948;1107;22740;-81
2021/05/01 13:56:27;;;;;;;5.48;2.50;;;;;;;29.89;25.83;97526.80;127340;1104;115538;-82
2021/05/01 14:03:35;;;;;;;6.30;2.70;;;;;;;29.45;26.20;97526.96;127083;1105;115147;-82
2021/05/01 14:07:02;;;;;;;6.25;2.88;;;;;;;29.27;26.25;97535.96;127462;1104;115184;-81
2021/05/01 14:14:10;;;;;;;9.15;2.65;;;;;;;28.86;26.78;97529.56;127446;1104;115146;-80
2021/05/01 14:21:36;;;;;;;6.53;3.05;;;;;;;28.79;26.96;97527.05;128009;1104;22809;-82
2021/05/01 14:24:54;;;;;;;4.33;2.35;;;;;;;28.91;27.20;97517.11;128230;1104;22746;-81
2021/05/01 14:28:21;;;;;;;9.80;2.83;;;;;;;29.21;27.59;97528.71;127307;1105;114812;-81
2021/05/01 14:31:56;;;;;;;9.53;3.55;;;;;;;29.32;27.00;97513.20;127509;1099;114879;-80
2021/05/01 14:35:37;;;;;;;5.38;2.98;;;;;;;29.39;26.53;97522.45;127488;1104;115060;-81
2021/05/01 14:46:05;;;;;;;4.90;2.65;;;;;;;28.69;27.65;97513.58;127485;1104;115704;-80
2021/05/01 14:49:44;;;;;;;7.15;2.95;;;;;;;28.20;28.17;97498.27;127538;1104;115069;-81
2021/05/01 15:00:48;;;;;;;5.18;2.80;;;;;;;27.06;29.75;97510.97;127270;1104;115629;-83
2021/05/01 15:04:27;;;;;;;7.08;2.48;;;;;;;26.95;30.31;97506.98;127247;1105;114930;-81
2021/05/01 15:07:47;;;;;;;7.35;3.03;;;;;;;26.77;30.58;97511.05;127382;1104;115801;-82
2021/05/01 15:11:42;;;;;;;;;;;;;;;;;;;;;
2021/05/01 15:18:40;;;;;;;4.67;2.10;;;;;;;26.49;31.47;97501.59;127766;1108;22782;-79
2021/05/01 15:22:10;;;;;;;;;;;;;;;26.53;31.49;97507.78;127440;1104;114943;-79
2021/05/01 15:36:00;;;;;;;9.25;3.18;;;;;;;27.99;30.12;97490.72;128272;1104;22742;-80
2021/05/01 15:39:33;;;;;;;7.05;2.85;;;;;;;28.65;29.38;97480.50;127380;1105;115261;-82
2021/05/01 15:42:59;;;;;;;8.83;3.43;;;;;;;29.52;27.34;97476.75;127199;1105;115310;-80
2021/05/01 15:46:26;;;;;;;9.03;2.98;;;;;;;30.18;26.93;97475.65;127446;1104;115405;-80
2021/05/01 15:49:54;;;;;;;7.53;2.90;;;;;;;30.63;25.56;97474.85;127385;1104;115484;-81
2021/05/01 16:06:39;;;;;;;10.18;3.20;;;;;;;31.98;24.16;97469.67;128443;1091;30017;-79
2021/05/01 16:09:05;;;;;;;6.75;3.05;;;;;;;32.35;23.45;97449.89;127128;1104;114568;-79
2021/05/01 16:11:31;;;;;;;3.90;2.55;;;;;;;32.55;23.59;97450.03;127143;1104;115084;-79
2021/05/01 16:13:57;;;;;;;5.60;2.30;;;;;;;32.41;24.04;97448.75;128003;1104;23617;-79
2021/05/01 16:16:23;;;;;;;5.75;2.73;;;;;;;31.99;23.91;97448.92;127226;1100;114867;-79
2021/05/01 16:18:49;;;;;;;4.63;2.23;;;;;;;31.71;24.56;97449.09;127233;1104;115255;-78
2021/05/01 16:21:15;;;;;;;4.68;2.40;;;;;;;31.40;24.61;97440.33;127302;1104;115022;-80
2021/05/01 16:23:41;;;;;;;7.28;2.35;;;;;;;30.90;25.23;97442.70;127303;1104;114869;-79
2021/05/01 16:26:07;;;;;;;5.63;2.60;;;;;;;30.22;25.67;97454.05;128132;1104;22769;-79
2021/05/01 16:28:33;;;;;;;6.00;2.30;;;;;;;29.81;26.25;97448.62;127302;1104;114021;-79
2021/05/01 16:30:59;;;;;;;5.53;2.20;;;;;;;29.34;26.57;97449.73;127237;1104;114740;-78
2021/05/01 16:33:25;;;;;;;6.75;2.68;;;;;;;29.26;26.86;97434.61;127264;1099;115105;-78
2021/05/01 16:35:51;;;;;;;6.88;2.60;;;;;;;29.27;26.95;97447.23;127300;1104;115400;-78
2021/05/01 16:38:17;;;;;;;9.08;2.98;;;;;;;29.42;26.61;97444.66;127244;1104;115902;-78
2021/05/01 16:40:44;;;;;;;3.33;2.13;;;;;;;29.13;27.08;97452.59;128089;1104;22849;-78
2021/05/01 16:43:10;;;;;;;5.43;2.43;;;;;;;28.83;27.52;97449.34;127310;1104;114361;-78
2021/05/01 16:45:36;;;;;;;4.08;1.95;;;;;;;28.57;28.05;97438.44;127283;1104;114966;-78
2021/05/01 16:48:02;;;;;;;4.78;2.53;;;;;;;28.31;28.29;97445.30;127292;1104;115544;-79
2021/05/01 16:50:28;;;;;;;5.73;2.28;;;;;;;28.05;28.19;97450.17;127258;1104;115291;-79
2021/05/01 16:52:54;;;;;;;7.80;2.50;;;;;;;27.78;28.98;97450.70;128095;1104;22731;-79
2021/05/01 16:55:20;;;;;;;5.08;2.08;;;;;;;27.48;29.60;97450.08;127255;1104;115533;-79
2021/05/01 16:57:47;;;;;;;5.63;2.40;;;;;;;27.17;29.95;97458.18;127580;1104;115323;-78
2021/05/01 17:00:14;;;;;;;6.68;2.40;;;;;;;26.91;30.02;97462.88;127334;1104;115408;-78
2021/05/01 17:02:40;;;;;;;6.03;2.80;;;;;;;26.67;30.75;97471.46;127682;1104;115472;-78
2021/05/01 17:05:07;;;;;;;7.33;2.60;;;;;;;26.44;30.89;97471.70;128179;1104;22772;-78
2021/05/01 17:07:33;;;;;;;5.25;2.50;;;;;;;26.15;32.05;97469.73;127361;1104;115402;-78
2021/05/01 17:10:01;;;;;;;5.20;2.40;;;;;;;25.95;31.38;97485.64;127339;1104;115241;-78
2021/05/01 17:12:27;;;;;;;7.90;2.40;;;;;;;25.73;32.10;97481.84;127127;1105;115331;-77
2021/05/01 17:14:53;;;;;;;9.13;3.95;;;;;;;25.55;32.21;97476.78;127285;1104;115587;-78
2021/05/01 17:17:19;;;;;;;4.85;2.23;;;;;;;25.45;32.78;97481.33;127396;1104;115190;-77
2021/05/01 17:19:45;;;;;;;5.80;2.33;;;;;;;25.37;33.76;97485.45;128131;1104;23213;-79
2021/05/01 17:22:15;;;;;;;5.68;3.00;;;;;;;25.25;33.37;97492.42;127289;1104;115550;-78
2021/05/01 17:24:41;;;;;;;7.25;2.68;;;;;;;25.17;33.52;97493.79;127501;1099;115531;-78
2021/05/01 17:27:07;;;;;;;6.75;2.85;;;;;;;25.03;33.46;97494.84;127454;1100;115344;-79
2021/05/01 17:29:34;;;;;;;8.48;2.75;;;;;;;24.91;33.74;97489.98;127364;1104;115475;-78
2021/05/01 17:32:00;;;;;;;7.35;3.00;;;;;;;24.77;33.97;97491.08;128145;1104;22749;-77
2021/05/01 17:34:26;;;;;;;9.18;3.00;;;;;;;24.68;34.11;97488.11;127356;1104;114494;-78
2021/05/01 17:36:53;;;;;;;8.55;3.20;;;;;;;24.58;34.85;97484.39;127313;1104;115442;-78
2021/05/01 17:39:19;;;;;;;10.00;3.00;;;;;;;24.48;35.24;97485.36;127357;1104;115217;-78
2021/05/01 17:41:45;;;;;;;9.88;3.45;;;;;;;24.37;35.63;97488.31;127481;1104;115718;-78
2021/05/01 17:44:11;;;;;;;8.40;2.88;;;;;;;24.29;36.10;97486.09;128158;1104;22802;-78
2021/05/01 17:46:37;;;;;;;6.78;2.70;;;;;;;24.15;37.09;97479.67;128225;1104;115199;-78
2021/05/01 17:49:05;;;;;;;8.10;2.50;;;;;;;24.05;36.92;97474.36;127180;1099;115440;-78
2021/05/01 17:51:32;;;;;;;9.18;2.55;;;;;;;23.92;36.98;97474.98;127469;1104;115819;-78
2021/05/01 17:53:58;;;;;;;6.13;2.50;;;;;;;23.81;37.22;97484.61;127438;1104;115482;-78
2021/05/01 17:56:26;;;;;;;7.40;2.30;;;;;;;23.71;37.75;97476.14;127251;1105;115433;-78
2021/05/01 17:58:53;;;;;;;6.25;2.48;;;;;;;23.61;37.87;97481.77;128368;1104;22776;-78
2021/05/01 18:01:19;;;;;;;7.95;2.30;;;;;;;23.49;38.22;97483.14;127390;1105;115469;-80
2021/05/01 18:03:48;;;;;;;4.33;2.10;;;;;;;23.39;38.30;97478.61;127451;1104;115550;-79
2021/05/01 18:06:14;;;;;;;6.88;2.55;;;;;;;23.32;38.18;97484.20;127448;1104;115155;-78
2021/05/01 18:08:41;;;;;;;8.65;2.58;;;;;;;23.21;38.40;97470.63;127354;1104;115461;-78
2021/05/01 18:11:08;;;;;;;6.83;2.53;;;;;;;23.12;38.71;97464.88;128300;1104;23323;-78
2021/05/01 18:13:34;;;;;;;5.30;2.20;;;;;;;23.02;38.80;97469.32;127451;1100;115343;-79
2021/05/01 18:16:02;;;;;;;6.60;2.35;;;;;;;22.95;38.87;97458.43;127416;1104;115507;-79
2021/05/01 18:18:28;;;;;;;7.33;2.55;;;;;;;22.85;39.39;97454.63;127399;1104;114875;-78
2021/05/01 18:20:54;;;;;;;7.78;2.55;;;;;;;22.76;39.47;97459.86;127498;1104;117176;-78
2021/05/01 18:23:20;;;;;;;;;;;;;;;22.65;39.60;97462.73;127521;1099;115811;-78
2021/05/01 18:25:51;;;;;;;8.38;3.03;;;;;;;22.55;39.83;97461.66;128257;1104;22753;-77
2021/05/01 18:28:17;;;;;;;6.73;2.63;;;;;;;22.48;39.79;97463.74;127485;1104;115513;-78
2021/05/01 18:30:44;;;;;;;9.85;3.08;;;;;;;22.39;40.24;97458.73;127499;1099;115898;-78
2021/05/01 18:33:12;;;;;;;20.35;3.45;;;;;;;22.29;40.35;97454.16;127389;1100;115239;-77
2021/05/01 18:35:39;;;;;;;9.85;3.00;;;;;;;22.18;40.56;97459.76;127459;1104;115487;-77
2021/05/01 18:38:04;;;;;;;8.90;2.70;;;;;;;22.08;40.85;97455.13;128296;1104;22894;-77
2021/05/01 18:40:31;;;;;;;6.03;2.53;;;;;;;22.00;41.12;97450.91;127489;1104;115185;-77
2021/05/01 18:42:57;;;;;;;11.15;2.88;;;;;;;21.89;41.15;97462.00;127519;1104;114996;-77
2021/05/01 18:45:25;;;;;;;8.30;2.50;;;;;;;21.83;41.59;97460.09;127434;1104;116002;-77
2021/05/01 18:47:51;;;;;;;6.40;2.55;;;;;;;21.73;41.71;97454.31;127574;1104;115621;-77
2021/05/01 18:50:17;;;;;;;11.55;2.68;;;;;;;21.66;41.81;97448.90;127449;1104;115166;-77
2021/05/01 18:52:44;;;;;;;10.28;2.70;;;;;;;21.60;41.73;97449.73;128351;1104;22766;-77
2021/05/01 18:55:11;;;;;;;9.18;2.80;;;;;;;21.54;41.96;97443.92;127339;1105;115334;-78
2021/05/01 18:57:38;;;;;;;8.38;2.68;;;;;;;21.48;42.10;97438.08;127548;1104;115064;-77
2021/05/01 19:00:07;;;;;;;7.93;2.87;;;;;;;21.41;42.22;97438.14;127456;1104;115880;-77
2021/05/01 19:02:33;;;;;;;8.00;2.88;;;;;;;21.37;42.17;97434.65;127339;1104;115783;-78
2021/05/01 19:04:59;;;;;;;8.90;2.70;;;;;;;21.31;42.35;97431.55;128212;1104;22895;-77
2021/05/01 19:07:27;;;;;;;7.88;2.40;;;;;;;21.25;43.24;97430.41;127422;1104;115236;-79
2021/05/01 19:09:53;;;;;;;8.80;2.63;;;;;;;21.21;42.57;97428.88;127505;1104;114603;-79
2021/05/01 19:12:26;;;;;;;15.78;2.98;;;;;;;21.15;42.52;97425.80;127470;1100;115136;-79
2021/05/01 19:15:01;;;;;;;13.93;3.00;;;;;;;21.11;42.49;97425.05;127166;1104;115793;-79
2021/05/01 19:17:29;;;;;;;9.97;2.97;;;;;;;21.07;42.55;97427.81;127117;1104;115713;-78
2021/05/01 19:19:58;;;;;;;8.70;3.00;;;;;;;21.04;42.64;97419.63;128189;1104;22749;-78
2021/05/01 19:22:29;;;;;;;8.77;2.77;;;;;;;21.00;42.61;97414.17;127404;1105;115169;-78
2021/05/01 19:24:57;;;;;;;16.43;3.70;;;;;;;20.97;42.70;97408.72;127471;1100;114553;-77
2021/05/01 19:27:24;;;;;;;7.40;3.18;;;;;;;20.93;42.84;97407.97;128152;1104;115224;-78
2021/05/01 19:29:51;;;;;;;11.40;4.03;;;;;;;20.90;43.06;97408.77;127460;1104;115880;-78
2021/05/01 19:32:18;;;;;;;8.13;2.68;;;;;;;20.86;42.95;97416.22;127448;1104;115853;-77
2021/05/01 19:34:48;;;;;;;10.35;3.13;;;;;;;20.83;43.14;97412.34;128522;1100;26219;-77
2021/05/01 19:37:14;;;;;;;11.65;3.33;;;;;;;20.79;43.22;97397.91;127620;1104;115253;-78
2021/05/01 19:39:40;;;;;;;10.65;3.28;;;;;;;20.76;43.40;97409.65;127350;1104;116289;-78
2021/05/01 19:42:06;;;;;;;7.78;3.13;;;;;;;20.73;43.62;97400.27;127515;1104;114950;-78
2021/05/01 19:44:35;;;;;;;8.60;2.98;;;;;;;20.69;43.72;97407.72;127312;1104;115948;-78
2021/05/01 19:47:03;;;;;;;9.23;3.23;;;;;;;20.67;44.09;97395.61;128161;1104;22810;-77
2021/05/01 19:49:30;;;;;;;9.58;3.85;;;;;;;20.64;44.62;97393.70;127286;1100;115211;-77
2021/05/01 19:51:56;;;;;;;7.85;3.65;;;;;;;20.60;45.87;97396.45;127371;1104;115432;-77
2021/05/01 19:54:22;;;;;;;10.98;4.90;;;;;;;20.58;46.30;97404.27;127332;1105;115914;-77
2021/05/01 19:56:48;;;;;;;7.48;4.18;;;;;;;20.56;46.86;97395.70;127653;1104;115205;-77
2021/05/01 19:59:14;;;;;;;7.78;4.18;;;;;;;20.54;47.55;97400.77;128280;1104;22836;-77
2021/05/01 20:01:40;;;;;;;12.05;4.43;;;;;;;20.53;47.67;97399.22;128145;1099;26210;-77
2021/05/01 20:04:07;;;;;;;10.23;4.48;;;;;;;20.52;48.13;97397.67;127431;1104;115099;-77
2021/05/01 20:06:33;;;;;;;11.98;4.93;;;;;;;20.50;48.58;97395.31;127337;1104;115165;-77
2021/05/01 20:09:00;;;;;;;10.25;4.78;;;;;;;20.47;49.11;97392.57;127435;1104;115533;-77
2021/05/01 20:11:26;;;;;;;9.88;4.63;;;;;;;20.43;49.60;97395.31;127349;1104;115791;-76
2021/05/01 20:13:52;;;;;;;10.50;4.90;;;;;;;20.40;49.94;97387.16;128266;1104;22856;-76
2021/05/01 20:16:19;;;;;;;9.85;4.90;;;;;;;20.36;50.30;97389.91;127466;1104;114943;-76
2021/05/01 20:18:45;;;;;;;8.28;4.85;;;;;;;20.33;51.38;97382.50;127499;1104;115588;-77
2021/05/01 20:21:11;;;;;;;8.88;4.83;;;;;;;20.32;50.80;97378.98;127431;1104;115595;-77
2021/05/01 20:23:37;;;;;;;9.08;4.98;;;;;;;20.31;51.35;97382.88;127336;1104;114991;-78